Time;durP1;ratioP1;P1;durP2;ratioP2;P2;SDS_P1;SDS_P2;PMS_P1;PMS_P2;Temp;Humidity;BMP_temperature;BMP_pressure;BME280_temperature;BME280_humidity;BME280_pressure;Samples;Min_cycle;Max_cycle;Signal;HPM_P1;HPM_P2
2022/07/22 00:01:24;;;;;;;7.83;7.20;;;21.40;1.00;;;;;;6266805;28;20876;-53
2022/07/22 00:04:28;;;;;;;7.93;7.53;;;21.40;1.00;;;;;;6283332;28;20316;-51
2022/07/22 00:07:31;;;;;;;7.77;7.37;;;21.40;1.00;;;;;;6268908;28;20245;-51
2022/07/22 00:10:34;;;;;;;7.90;7.40;;;21.50;1.00;;;;;;6257791;28;20265;-52
2022/07/22 00:13:38;;;;;;;7.27;6.97;;;21.40;1.00;;;;;;6256605;28;20237;-52
2022/07/22 00:16:41;;;;;;;7.33;6.90;;;21.40;1.00;;;;;;6256919;28;20737;-54
2022/07/22 00:19:44;;;;;;;7.40;6.90;;;21.40;1.00;;;;;;6258179;28;20337;-51
2022/07/22 00:22:47;;;;;;;7.60;7.00;;;21.50;1.00;;;;;;6264468;28;20833;-52
2022/07/22 00:25:50;;;;;;;7.27;6.83;;;21.50;1.00;;;;;;6272443;28;20229;-54
2022/07/22 00:28:54;;;;;;;6.83;6.33;;;21.50;1.00;;;;;;6278530;28;20336;-52
2022/07/22 00:31:57;;;;;;;6.60;6.30;;;21.50;1.00;;;;;;6265158;28;20245;-52
2022/07/22 00:35:00;;;;;;;6.80;6.50;;;21.50;1.00;;;;;;6276097;28;20234;-51
2022/07/22 00:38:03;;;;;;;7.27;6.77;;;21.40;1.00;;;;;;6291429;28;20256;-53
2022/07/22 00:41:07;;;;;;;6.53;6.20;;;21.40;1.00;;;;;;6281844;28;20370;-52
2022/07/22 00:44:11;;;;;;;8.07;7.43;;;21.40;1.00;;;;;;6254787;28;20233;-52
2022/07/22 00:47:15;;;;;;;6.80;6.40;;;21.40;1.00;;;;;;6257301;28;21324;-52
2022/07/22 00:50:19;;;;;;;7.63;7.00;;;21.40;1.00;;;;;;6258220;28;20348;-53
2022/07/22 00:53:22;;;;;;;7.10;6.70;;;21.30;1.00;;;;;;6270950;28;20251;-53
2022/07/22 00:56:25;;;;;;;6.93;6.53;;;21.30;1.00;;;;;;6276297;28;20246;-52
2022/07/22 00:59:30;;;;;;;6.80;6.30;;;21.20;1.00;;;;;;6254357;28;20238;-52
2022/07/22 01:02:33;;;;;;;6.40;6.00;;;21.20;1.00;;;;;;6262759;28;20725;-52
2022/07/22 01:05:36;;;;;;;6.10;5.90;;;21.20;1.00;;;;;;6287935;28;20320;-51
2022/07/22 01:08:39;;;;;;;6.93;6.53;;;21.10;1.00;;;;;;6282159;28;20243;-53
2022/07/22 01:11:43;;;;;;;7.57;6.87;;;21.10;1.00;;;;;;6280113;28;20233;-52
2022/07/22 01:14:47;;;;;;;6.50;6.20;;;21.10;1.00;;;;;;6256036;28;20308;-53
2022/07/22 01:17:50;;;;;;;6.37;6.17;;;21.00;1.00;;;;;;6258115;28;20230;-52
2022/07/22 01:20:54;;;;;;;6.87;6.57;;;21.00;1.00;;;;;;6258054;28;20480;-53
2022/07/22 01:23:58;;;;;;;6.40;6.10;;;21.00;1.00;;;;;;6265802;28;20762;-51
2022/07/22 01:27:01;;;;;;;6.63;6.23;;;20.90;1.00;;;;;;6277831;28;20233;-51
2022/07/22 01:30:05;;;;;;;6.60;6.30;;;20.90;1.00;;;;;;6265143;28;20843;-52
2022/07/22 01:33:08;;;;;;;5.63;5.43;;;20.90;1.00;;;;;;6268602;28;20268;-52
2022/07/22 01:36:12;;;;;;;6.33;5.93;;;20.80;1.00;;;;;;6309738;28;20244;-52
2022/07/22 01:39:15;;;;;;;6.27;5.87;;;20.80;1.00;;;;;;6289704;28;20620;-50
2022/07/22 01:42:18;;;;;;;5.63;5.43;;;20.80;1.00;;;;;;6263328;28;20259;-53
2022/07/22 01:45:21;;;;;;;5.57;5.37;;;20.80;1.00;;;;;;6258221;28;20335;-53
2022/07/22 01:48:25;;;;;;;5.80;5.50;;;20.70;1.00;;;;;;6273485;28;20245;-53
2022/07/22 01:51:29;;;;;;;6.23;5.83;;;20.70;1.00;;;;;;6272048;28;20245;-53
2022/07/22 01:54:32;;;;;;;6.03;5.73;;;20.60;1.00;;;;;;6282685;28;20326;-52
2022/07/22 01:57:36;;;;;;;6.43;6.03;;;20.60;1.00;;;;;;6286458;28;20229;-53
2022/07/22 02:00:39;;;;;;;5.97;5.67;;;20.60;1.00;;;;;;6274895;28;20735;-52
2022/07/22 02:03:42;;;;;;;6.47;6.00;;;20.50;1.00;;;;;;6279531;28;20299;-53
2022/07/22 02:06:46;;;;;;;6.87;6.40;;;20.50;1.00;;;;;;6311182;28;20736;-52
2022/07/22 02:09:49;;;;;;;5.93;5.70;;;20.40;1.00;;;;;;6311315;28;20236;-52
2022/07/22 02:12:52;;;;;;;6.10;5.70;;;20.40;1.00;;;;;;6283349;28;20712;-52
2022/07/22 02:15:55;;;;;;;7.00;6.50;;;20.40;1.00;;;;;;6259394;28;20246;-52
2022/07/22 02:18:58;;;;;;;6.27;6.03;;;20.30;1.00;;;;;;6261188;28;20241;-52
2022/07/22 02:22:03;;;;;;;6.30;5.90;;;20.30;1.00;;;;;;6262141;28;20745;-52
2022/07/22 02:25:06;;;;;;;6.40;6.13;;;20.30;1.00;;;;;;6278250;28;20298;-52
2022/07/22 02:28:09;;;;;;;6.40;6.10;;;20.30;1.00;;;;;;6278301;28;20309;-52
2022/07/22 02:31:12;;;;;;;6.57;6.27;;;20.30;1.00;;;;;;6258464;28;20233;-52
2022/07/22 02:34:15;;;;;;;6.13;5.83;;;20.20;1.00;;;;;;6288011;28;20233;-53
2022/07/22 02:37:20;;;;;;;7.50;7.03;;;20.20;1.00;;;;;;6290200;28;20246;-53
2022/07/22 02:40:23;;;;;;;7.17;6.83;;;20.20;1.00;;;;;;6260494;28;20244;-52
2022/07/22 02:43:26;;;;;;;7.03;6.73;;;20.20;1.00;;;;;;6260410;28;20238;-50
2022/07/22 02:46:29;;;;;;;7.77;7.27;;;20.20;1.00;;;;;;6258105;28;20349;-51
2022/07/22 02:49:32;;;;;;;7.37;7.07;;;20.10;1.00;;;;;;6272725;28;20287;-52
2022/07/22 02:52:36;;;;;;;8.70;8.00;;;20.10;1.00;;;;;;6300098;28;20387;-50
2022/07/22 02:55:39;;;;;;;8.10;7.50;;;20.00;1.00;;;;;;6278907;28;20397;-52
2022/07/22 02:58:43;;;;;;;8.37;7.70;;;20.00;1.00;;;;;;6256769;28;20242;-53
2022/07/22 03:01:45;;;;;;;8.80;7.93;;;19.90;1.00;;;;;;6261841;28;20302;-53
2022/07/22 03:04:49;;;;;;;8.93;8.20;;;19.90;1.00;;;;;;6281581;28;20476;-52
2022/07/22 03:07:53;;;;;;;7.60;7.20;;;19.80;1.00;;;;;;6282672;28;20461;-52
2022/07/22 03:10:56;;;;;;;8.53;7.93;;;19.80;1.00;;;;;;6283813;28;20591;-52
2022/07/22 03:13:59;;;;;;;8.67;7.87;;;19.80;1.00;;;;;;6261385;28;20685;-53
2022/07/22 03:17:01;;;;;;;8.60;8.10;;;19.80;1.00;;;;;;6259222;28;20241;-52
2022/07/22 03:20:06;;;;;;;8.20;7.70;;;19.80;1.00;;;;;;6259532;28;20246;-52
2022/07/22 03:23:10;;;;;;;10.10;9.37;;;19.80;1.00;;;;;;6268207;28;20609;-52
2022/07/22 03:26:13;;;;;;;10.20;9.40;;;19.70;1.00;;;;;;6283496;28;20592;-52
2022/07/22 03:29:16;;;;;;;9.63;9.03;;;19.70;1.00;;;;;;6280038;28;20640;-54
2022/07/22 03:32:19;;;;;;;10.27;9.47;;;19.70;1.00;;;;;;6264543;28;20591;-52
2022/07/22 03:35:23;;;;;;;9.27;8.67;;;19.60;1.00;;;;;;6281112;28;20264;-52
2022/07/22 03:38:27;;;;;;;9.80;9.20;;;19.60;1.00;;;;;;6278400;28;20314;-52
2022/07/22 03:41:30;;;;;;;11.07;10.37;;;19.50;1.00;;;;;;6282032;28;20238;-52
2022/07/22 03:44:32;;;;;;;11.13;10.23;;;19.50;1.00;;;;;;6292229;28;20312;-52
2022/07/22 03:47:36;;;;;;;10.93;10.03;;;19.50;1.00;;;;;;6277775;28;20236;-52
2022/07/22 03:50:39;;;;;;;10.77;9.97;;;19.40;1.00;;;;;;6272179;28;20237;-52
2022/07/22 03:53:43;;;;;;;10.73;10.03;;;19.40;1.00;;;;;;6281719;28;20239;-53
2022/07/22 03:56:47;;;;;;;11.33;10.43;;;19.50;1.00;;;;;;6279846;28;20248;-53
2022/07/22 03:59:50;;;;;;;12.10;11.30;;;19.40;1.00;;;;;;6277554;28;20403;-50
2022/07/22 04:02:53;;;;;;;11.07;10.07;;;19.50;1.00;;;;;;6281920;28;20859;-52
2022/07/22 04:05:56;;;;;;;11.43;10.70;;;19.50;1.00;;;;;;6277941;28;20238;-51
2022/07/22 04:09:00;;;;;;;11.87;10.93;;;19.50;1.00;;;;;;6278988;28;20928;-52
2022/07/22 04:12:03;;;;;;;10.33;9.73;;;19.60;1.00;;;;;;6279608;28;20257;-52
2022/07/22 04:15:08;;;;;;;12.57;11.50;;;19.60;1.00;;;;;;6274283;28;20291;-51
2022/07/22 04:18:12;;;;;;;13.23;12.17;;;19.60;1.00;;;;;;6272053;28;20249;-52
2022/07/22 04:21:15;;;;;;;12.43;11.33;;;19.60;1.00;;;;;;6265033;28;20257;-52
2022/07/22 04:24:19;;;;;;;12.27;11.27;;;19.60;1.00;;;;;;6274143;28;20335;-53
2022/07/22 04:27:23;;;;;;;12.53;11.63;;;19.60;1.00;;;;;;6278797;28;20252;-53
2022/07/22 04:30:26;;;;;;;13.00;12.00;;;19.60;1.00;;;;;;6282547;28;20253;-52
2022/07/22 04:33:29;;;;;;;12.53;11.53;;;19.70;1.00;;;;;;6279602;28;21262;-53
2022/07/22 04:36:32;;;;;;;12.00;11.10;;;19.70;1.00;;;;;;6280289;28;20714;-51
2022/07/22 04:39:37;;;;;;;12.70;11.60;;;19.80;1.00;;;;;;6283751;28;20399;-53
2022/07/22 04:42:40;;;;;;;14.90;13.53;;;19.80;1.00;;;;;;6284867;28;20234;-52
2022/07/22 04:45:42;;;;;;;14.13;12.93;;;19.90;1.00;;;;;;6278393;28;20241;-53
2022/07/22 04:48:45;;;;;;;14.13;12.97;;;19.90;1.00;;;;;;6272279;28;20575;-52
2022/07/22 04:51:48;;;;;;;13.77;12.67;;;19.90;1.00;;;;;;6279475;28;20313;-52
2022/07/22 04:54:53;;;;;;;15.23;13.80;;;19.90;1.00;;;;;;6286418;28;20395;-52
2022/07/22 04:57:55;;;;;;;13.93;12.77;;;19.90;1.00;;;;;;6280760;28;20236;-52
2022/07/22 05:00:58;;;;;;;14.70;13.50;;;19.90;1.00;;;;;;6281391;28;20236;-52
2022/07/22 05:04:01;;;;;;;15.20;13.90;;;20.00;1.00;;;;;;6276101;28;20885;-53
2022/07/22 05:07:04;;;;;;;13.97;12.90;;;19.90;1.00;;;;;;6278812;28;20308;-53
2022/07/22 05:10:09;;;;;;;14.13;13.13;;;20.00;1.00;;;;;;6284392;28;20249;-53
2022/07/22 05:13:13;;;;;;;15.30;13.93;;;20.00;1.00;;;;;;6261478;28;20547;-51
2022/07/22 05:16:16;;;;;;;14.00;12.80;;;20.00;1.00;;;;;;6277083;28;20333;-53
2022/07/22 05:19:20;;;;;;;14.00;12.20;;;20.10;1.00;;;;;;6285388;28;20794;-51
2022/07/22 05:22:22;;;;;;;14.23;12.93;;;20.10;1.00;;;;;;6280569;28;20673;-53
2022/07/22 05:25:27;;;;;;;13.13;12.13;;;20.20;1.00;;;;;;6279479;28;20733;-51
2022/07/22 05:28:30;;;;;;;14.03;12.93;;;20.30;1.00;;;;;;6279824;28;20476;-53
2022/07/22 05:31:33;;;;;;;14.13;13.00;;;20.30;1.00;;;;;;6278973;28;20544;-52
2022/07/22 05:34:36;;;;;;;12.37;11.43;;;20.30;1.00;;;;;;6279581;28;20589;-51
2022/07/22 05:37:39;;;;;;;12.37;11.57;;;20.40;1.00;;;;;;6275291;28;20503;-52
2022/07/22 05:40:43;;;;;;;13.50;12.60;;;20.50;1.00;;;;;;6279731;28;20379;-52
2022/07/22 05:43:46;;;;;;;12.63;11.63;;;20.60;1.00;;;;;;6278113;28;20604;-51
2022/07/22 05:46:49;;;;;;;14.73;13.63;;;20.50;1.00;;;;;;6277987;28;20709;-53
2022/07/22 05:49:52;;;;;;;13.50;12.47;;;20.60;1.00;;;;;;6274978;28;20244;-52
2022/07/22 05:52:55;;;;;;;12.63;11.63;;;20.60;1.00;;;;;;6285643;28;20286;-54
2022/07/22 05:55:59;;;;;;;12.60;11.60;;;20.60;1.00;;;;;;6277546;28;20221;-52
2022/07/22 05:59:08;;;;;;;14.67;13.57;;;20.50;1.00;;;;;;6287576;28;20411;-53
2022/07/22 06:02:11;;;;;;;14.20;12.70;;;20.60;1.00;;;;;;6285124;28;20716;-53
2022/07/22 06:05:14;;;;;;;12.47;11.47;;;20.60;1.00;;;;;;6272231;28;20237;-52
2022/07/22 06:08:38;;;;;;;13.03;11.83;;;20.60;1.00;;;;;;6276101;28;20286;-53
2022/07/22 06:11:42;;;;;;;12.37;11.37;;;20.70;1.00;;;;;;6282090;28;20668;-57
2022/07/22 06:14:46;;;;;;;10.73;9.93;;;20.80;1.00;;;;;;6271061;28;20316;-53
2022/07/22 06:17:48;;;;;;;13.43;12.43;;;20.90;1.00;;;;;;6278520;28;20237;-53
2022/07/22 06:20:52;;;;;;;12.70;11.53;;;21.00;1.00;;;;;;6279663;28;20400;-52
2022/07/22 06:23:55;;;;;;;12.83;11.90;;;20.90;1.00;;;;;;6282814;28;20237;-53
2022/07/22 06:26:59;;;;;;;12.57;11.50;;;21.00;1.00;;;;;;6285469;28;20756;-53
2022/07/22 06:30:03;;;;;;;12.63;11.73;;;21.00;1.00;;;;;;6284003;28;20297;-52
2022/07/22 06:33:05;;;;;;;12.53;11.53;;;21.10;1.00;;;;;;6285263;28;20320;-53
2022/07/22 06:36:09;;;;;;;12.80;11.60;;;21.20;1.00;;;;;;6283800;28;20237;-53
2022/07/22 06:39:12;;;;;;;12.87;11.90;;;21.30;1.00;;;;;;6283906;28;20287;-52
2022/07/22 06:42:16;;;;;;;12.30;11.43;;;21.40;1.00;;;;;;6286422;28;20230;-52
2022/07/22 06:45:19;;;;;;;12.00;11.20;;;21.50;1.00;;;;;;6281897;28;20241;-52
2022/07/22 06:48:22;;;;;;;12.80;11.83;;;21.60;1.00;;;;;;6286268;28;20322;-53
2022/07/22 06:51:25;;;;;;;12.23;11.33;;;21.60;1.00;;;;;;6289915;28;20237;-53
2022/07/22 06:54:29;;;;;;;11.67;10.87;;;21.60;1.00;;;;;;6285632;28;20679;-52
2022/07/22 06:57:33;;;;;;;13.03;11.93;;;21.70;1.00;;;;;;6283590;28;20233;-52
2022/07/22 07:00:36;;;;;;;11.10;10.33;;;21.90;1.00;;;;;;6278644;28;20683;-52
2022/07/22 07:03:39;;;;;;;11.77;11.07;;;22.10;1.00;;;;;;6287731;28;20266;-53
2022/07/22 07:06:42;;;;;;;11.27;10.47;;;22.00;1.00;;;;;;6282056;28;20794;-53
2022/07/22 07:09:44;;;;;;;11.67;10.97;;;22.00;1.00;;;;;;6287182;28;20379;-52
2022/07/22 07:12:49;;;;;;;10.97;10.37;;;22.20;1.00;;;;;;6275034;28;20752;-52
2022/07/22 07:15:52;;;;;;;11.60;10.83;;;22.20;1.00;;;;;;6275659;28;20636;-53
2022/07/22 07:18:55;;;;;;;10.60;9.83;;;22.30;1.00;;;;;;6277090;28;20723;-52
2022/07/22 07:21:59;;;;;;;10.27;9.53;;;22.20;1.00;;;;;;6275971;28;20233;-52
2022/07/22 07:25:04;;;;;;;10.27;9.57;;;22.20;1.00;;;;;;6286597;28;20257;-54
2022/07/22 07:28:26;;;;;;;10.77;10.00;;;22.50;1.00;;;;;;6282106;28;20420;-52
2022/07/22 07:31:29;;;;;;;11.37;10.73;;;22.70;1.00;;;;;;6278137;28;20662;-51
2022/07/22 07:34:32;;;;;;;10.63;9.83;;;22.70;1.00;;;;;;6282451;28;20304;-53
2022/07/22 07:37:35;;;;;;;10.40;9.70;;;22.80;1.00;;;;;;6287046;28;21047;-52
2022/07/22 07:40:38;;;;;;;10.40;9.60;;;22.90;1.00;;;;;;6281018;28;20262;-52
2022/07/22 07:43:43;;;;;;;9.40;8.80;;;23.20;1.00;;;;;;6287472;28;20340;-53
2022/07/22 07:46:46;;;;;;;9.00;8.50;;;23.40;1.00;;;;;;6285534;28;20233;-52
2022/07/22 07:49:50;;;;;;;8.37;7.83;;;23.50;1.00;;;;;;6271868;28;20248;-53
2022/07/22 07:52:53;;;;;;;9.27;8.67;;;23.80;1.00;;;;;;6285564;28;20324;-52
2022/07/22 07:55:56;;;;;;;8.10;7.70;;;23.70;1.00;;;;;;6278672;28;20242;-54
2022/07/22 07:59:01;;;;;;;8.10;7.60;;;23.80;1.00;;;;;;6280321;28;20349;-53
2022/07/22 08:02:24;;;;;;;8.17;7.87;;;23.70;1.00;;;;;;6286668;28;20237;-53
2022/07/22 08:05:28;;;;;;;8.70;7.87;;;23.60;1.00;;;;;;6285545;28;20283;-53
2022/07/22 08:08:31;;;;;;;7.37;6.97;;;23.70;1.00;;;;;;6276142;28;20643;-53
2022/07/22 08:11:34;;;;;;;7.27;6.90;;;23.80;1.00;;;;;;6282568;28;20244;-52
2022/07/22 08:14:38;;;;;;;9.53;8.93;;;23.80;1.00;;;;;;6281592;28;20718;-53
2022/07/22 08:17:42;;;;;;;9.07;8.47;;;23.90;1.00;;;;;;6277142;28;20453;-53
2022/07/22 08:20:45;;;;;;;7.60;7.17;;;24.00;1.00;;;;;;6281217;28;20320;-54
2022/07/22 08:23:48;;;;;;;7.00;6.73;;;24.00;1.00;;;;;;6284109;28;20237;-54
2022/07/22 08:26:51;;;;;;;7.40;7.00;;;24.20;1.00;;;;;;6283040;28;20725;-52
2022/07/22 08:29:56;;;;;;;7.30;7.00;;;24.30;1.00;;;;;;6290109;28;20248;-52
2022/07/22 08:32:59;;;;;;;6.93;6.43;;;24.00;1.00;;;;;;6282577;28;20233;-53
2022/07/22 08:36:02;;;;;;;7.70;7.23;;;23.90;1.00;;;;;;6283130;28;20316;-54
2022/07/22 08:39:05;;;;;;;7.60;7.10;;;23.80;1.00;;;;;;6279468;28;20918;-52
2022/07/22 08:42:08;;;;;;;6.93;6.53;;;23.70;1.00;;;;;;6277851;28;20618;-53
2022/07/22 08:45:13;;;;;;;6.37;6.07;;;23.80;1.00;;;;;;6280208;28;20237;-53
2022/07/22 08:48:20;;;;;;;7.00;6.70;;;24.00;1.00;;;;;;6278799;28;20233;-52
2022/07/22 08:51:23;;;;;;;7.20;6.70;;;24.10;1.00;;;;;;6280335;28;20237;-54
2022/07/22 08:54:27;;;;;;;7.00;6.50;;;24.00;1.00;;;;;;6279000;28;20230;-53
2022/07/22 08:57:29;;;;;;;7.80;6.93;;;23.80;1.00;;;;;;6286105;28;20723;-54
2022/07/22 09:00:34;;;;;;;7.37;6.97;;;23.70;1.00;;;;;;6276716;28;20438;-52
2022/07/22 09:03:47;;;;;;;7.00;6.70;;;23.50;1.00;;;;;;6282708;28;20789;-52
2022/07/22 09:06:50;;;;;;;7.83;7.23;;;23.30;1.00;;;;;;6273341;28;20721;-52
2022/07/22 09:09:53;;;;;;;6.83;6.50;;;23.00;1.00;;;;;;6287551;28;20414;-52
2022/07/22 09:12:59;;;;;;;7.07;6.60;;;22.90;1.00;;;;;;6281409;28;20232;-52
2022/07/22 09:16:03;;;;;;;6.97;6.40;;;22.90;1.00;;;;;;6279886;28;20229;-53
2022/07/22 09:19:06;;;;;;;6.43;6.07;;;23.00;1.00;;;;;;6275888;28;20266;-52
2022/07/22 09:22:10;;;;;;;6.93;6.53;;;23.10;1.00;;;;;;6281976;28;20912;-53
2022/07/22 09:25:22;;;;;;;7.67;6.57;;;23.50;1.00;;;;;;6256422;28;20252;-54
2022/07/22 09:28:25;;;;;;;6.80;6.30;;;23.80;1.00;;;;;;6276370;28;20280;-53
2022/07/22 09:31:33;;;;;;;7.10;6.50;;;23.60;1.00;;;;;;6281829;28;20270;-54
2022/07/22 09:34:38;;;;;;;6.70;6.17;;;23.60;1.00;;;;;;6289711;28;20259;-54
2022/07/22 09:37:50;;;;;;;5.63;5.33;;;23.50;1.00;;;;;;6276988;28;20320;-55
2022/07/22 09:40:53;;;;;;;5.33;5.23;;;23.40;1.00;;;;;;6283139;28;20604;-54
2022/07/22 09:43:57;;;;;;;5.17;5.03;;;23.20;1.00;;;;;;6277002;28;20232;-55
2022/07/22 09:47:02;;;;;;;5.20;4.77;;;23.10;1.00;;;;;;6274339;28;20260;-54
2022/07/22 09:50:15;;;;;;;5.07;4.63;;;23.20;1.00;;;;;;6278057;28;20253;-53
2022/07/22 09:53:20;;;;;;;4.07;3.77;;;23.20;1.00;;;;;;6278703;28;20798;-53
2022/07/22 09:56:25;;;;;;;3.20;3.20;;;23.30;1.00;;;;;;6284380;28;20224;-54
2022/07/22 09:59:28;;;;;;;4.40;3.13;;;23.40;1.00;;;;;;6282804;28;20265;-54
2022/07/22 10:02:34;;;;;;;3.03;3.03;;;23.40;1.00;;;;;;6295261;28;20233;-53
2022/07/22 10:05:40;;;;;;;3.23;3.13;;;23.50;1.00;;;;;;6289986;28;20454;-53
2022/07/22 10:08:43;;;;;;;3.50;3.40;;;23.70;1.00;;;;;;6286936;28;20278;-54
2022/07/22 10:11:46;;;;;;;3.13;3.13;;;23.80;1.00;;;;;;6288960;28;20285;-54
2022/07/22 10:14:53;;;;;;;3.73;3.53;;;23.90;1.00;;;;;;6281197;28;20248;-52
2022/07/22 10:18:03;;;;;;;3.60;3.50;;;24.10;1.00;;;;;;6287344;28;20287;-53
2022/07/22 10:21:08;;;;;;;3.57;3.47;;;24.50;1.00;;;;;;6283490;28;20707;-52
2022/07/22 10:24:12;;;;;;;3.37;3.37;;;24.70;1.00;;;;;;6285240;28;20322;-53
2022/07/22 10:27:15;;;;;;;3.73;3.63;;;25.10;1.00;;;;;;6287941;28;20359;-52
2022/07/22 10:30:20;;;;;;;4.17;4.07;;;25.10;1.00;;;;;;6273085;28;20485;-55
2022/07/22 10:33:31;;;;;;;4.00;3.90;;;25.10;1.00;;;;;;6285840;28;20296;-54
2022/07/22 10:36:36;;;;;;;3.90;3.80;;;25.30;1.00;;;;;;6294660;28;20441;-53
2022/07/22 10:40:13;;;;;;;4.10;4.00;;;25.20;1.00;;;;;;6283486;28;20441;-54
2022/07/22 10:43:18;;;;;;;4.70;4.60;;;25.10;1.00;;;;;;6281598;28;20233;-53
2022/07/22 10:46:48;;;;;;;4.53;4.30;;;25.30;1.00;;;;;;6274549;28;20241;-53
2022/07/22 10:49:52;;;;;;;4.00;3.90;;;25.60;1.00;;;;;;6286356;28;20264;-53
2022/07/22 10:52:57;;;;;;;3.97;3.87;;;25.90;1.00;;;;;;6294822;28;20306;-53
2022/07/22 10:56:04;;;;;;;4.40;4.30;;;26.20;1.00;;;;;;6285693;28;20496;-54
2022/07/22 10:59:12;;;;;;;4.40;4.10;;;26.10;1.00;;;;;;6283753;28;20230;-54
2022/07/22 11:02:17;;;;;;;4.60;4.50;;;26.00;1.00;;;;;;6282968;28;20243;-53
2022/07/22 11:05:27;;;;;;;4.87;4.67;;;26.00;1.00;;;;;;6289167;28;20245;-53
2022/07/22 11:08:30;;;;;;;4.30;4.20;;;25.90;1.00;;;;;;6281794;28;20309;-52
2022/07/22 11:11:41;;;;;;;4.00;3.90;;;26.10;1.00;;;;;;6288127;28;20657;-53
2022/07/22 11:14:45;;;;;;;4.13;3.90;;;26.10;1.00;;;;;;6272725;28;20241;-54
2022/07/22 11:17:48;;;;;;;4.57;4.40;;;26.00;1.00;;;;;;6277292;28;20218;-54
2022/07/22 11:20:56;;;;;;;4.27;4.10;;;26.00;1.00;;;;;;6289146;28;20233;-54
2022/07/22 11:24:01;;;;;;;4.70;4.60;;;26.10;1.00;;;;;;6278931;28;20241;-53
2022/07/22 11:27:09;;;;;;;4.53;4.43;;;26.10;1.00;;;;;;6283041;28;20229;-53
2022/07/22 11:30:15;;;;;;;4.80;4.70;;;26.10;1.00;;;;;;6280008;28;20321;-53
2022/07/22 11:33:18;;;;;;;4.77;4.67;;;26.10;1.00;;;;;;6283617;28;20679;-54
2022/07/22 11:36:25;;;;;;;5.10;5.00;;;26.00;1.00;;;;;;6277006;28;20244;-53
2022/07/22 11:39:30;;;;;;;5.83;5.63;;;26.20;1.00;;;;;;6281636;28;20252;-53
2022/07/22 11:42:33;;;;;;;5.97;5.67;;;26.20;1.00;;;;;;6276271;28;20318;-54
2022/07/22 11:45:36;;;;;;;5.23;5.10;;;26.30;1.00;;;;;;6279215;28;20229;-54
2022/07/22 11:48:40;;;;;;;5.70;5.50;;;26.30;1.00;;;;;;6281201;28;20409;-53
2022/07/22 11:51:44;;;;;;;5.63;5.27;;;26.40;1.00;;;;;;6290448;28;20348;-54
2022/07/22 11:54:47;;;;;;;5.03;4.93;;;26.50;1.00;;;;;;6283097;28;20233;-53
2022/07/22 11:57:50;;;;;;;5.47;5.23;;;26.70;1.00;;;;;;6285677;28;20379;-53
2022/07/22 12:00:53;;;;;;;5.43;4.50;;;26.70;1.00;;;;;;6278758;28;20237;-54
2022/07/22 12:04:00;;;;;;;4.40;4.30;;;26.70;1.00;;;;;;6282291;28;20761;-54
2022/07/22 12:07:06;;;;;;;4.37;4.17;;;26.80;1.00;;;;;;6282982;28;20237;-54
2022/07/22 12:10:09;;;;;;;4.17;4.07;;;26.60;1.00;;;;;;6284903;28;20269;-53
2022/07/22 12:13:13;;;;;;;4.20;4.13;;;26.60;1.00;;;;;;6290386;28;20766;-55
2022/07/22 12:16:21;;;;;;;4.63;4.50;;;26.50;1.00;;;;;;6280893;28;20355;-53
2022/07/22 12:19:28;;;;;;;4.20;4.10;;;26.50;1.00;;;;;;6276427;28;20699;-53
2022/07/22 12:22:33;;;;;;;4.50;4.40;;;26.60;1.00;;;;;;6291928;28;20241;-53
2022/07/22 12:25:51;;;;;;;4.50;4.23;;;26.50;1.00;;;;;;6277432;28;20776;-53
2022/07/22 12:29:13;;;;;;;4.70;4.60;;;26.50;1.00;;;;;;6278460;28;20295;-54
2022/07/22 12:32:18;;;;;;;4.50;4.40;;;26.30;1.00;;;;;;6281407;28;20331;-53
2022/07/22 12:35:22;;;;;;;4.07;3.97;;;26.00;1.00;;;;;;6281776;28;20275;-54
2022/07/22 12:38:26;;;;;;;4.50;4.30;;;25.90;1.00;;;;;;6282876;28;20336;-53
2022/07/22 12:41:46;;;;;;;4.03;3.93;;;26.00;1.00;;;;;;6277155;28;20702;-52
2022/07/22 12:44:54;;;;;;;4.73;4.30;;;26.10;1.00;;;;;;6273318;28;20788;-53
2022/07/22 12:48:06;;;;;;;4.20;4.10;;;26.20;1.00;;;;;;6273258;28;20285;-53
2022/07/22 12:51:12;;;;;;;3.90;3.80;;;26.10;1.00;;;;;;6275773;28;20233;-53
2022/07/22 12:54:16;;;;;;;4.00;3.70;;;26.20;1.00;;;;;;6278414;28;20406;-54
2022/07/22 12:57:19;;;;;;;3.80;3.70;;;26.40;1.00;;;;;;6278682;28;20651;-54
2022/07/22 13:00:23;;;;;;;3.90;3.70;;;26.30;1.00;;;;;;6274755;28;20815;-54
2022/07/22 13:03:27;;;;;;;3.43;3.43;;;26.20;1.00;;;;;;6280632;28;20298;-53
2022/07/22 13:06:30;;;;;;;4.03;3.93;;;26.30;1.00;;;;;;6280471;28;20253;-54
2022/07/22 13:09:35;;;;;;;3.97;3.60;;;26.10;1.00;;;;;;6279967;28;20579;-53
2022/07/22 13:12:40;;;;;;;3.70;3.60;;;25.90;1.00;;;;;;6278808;28;20262;-54
2022/07/22 13:15:43;;;;;;;4.13;3.90;;;25.90;1.00;;;;;;6273137;28;20241;-54
2022/07/22 13:18:46;;;;;;;4.63;3.20;;;25.90;1.00;;;;;;6277470;28;20245;-53
2022/07/22 13:21:49;;;;;;;2.83;2.73;;;25.80;1.00;;;;;;6280060;28;20444;-55
2022/07/22 13:24:53;;;;;;;3.30;3.10;;;25.70;1.00;;;;;;6277307;28;20779;-55
2022/07/22 13:27:56;;;;;;;3.00;3.00;;;25.90;1.00;;;;;;6275776;28;20307;-54
2022/07/22 13:30:59;;;;;;;2.93;2.90;;;25.90;1.00;;;;;;6272266;28;20718;-53
2022/07/22 13:34:02;;;;;;;3.10;3.10;;;25.90;1.00;;;;;;6280093;28;21443;-54
2022/07/22 13:37:05;;;;;;;3.57;3.47;;;25.90;1.00;;;;;;6289149;28;20316;-54
2022/07/22 13:40:11;;;;;;;2.67;2.67;;;25.70;1.00;;;;;;6286746;28;20241;-54
2022/07/22 13:43:14;;;;;;;3.40;3.30;;;25.70;1.00;;;;;;6284244;28;20347;-53
2022/07/22 13:46:17;;;;;;;2.60;2.50;;;25.80;1.00;;;;;;6285155;28;20225;-54
2022/07/22 13:49:22;;;;;;;3.13;3.13;;;25.50;1.00;;;;;;6286108;28;20241;-53
2022/07/22 13:52:25;;;;;;;3.00;2.90;;;25.20;1.00;;;;;;6285859;28;20290;-53
2022/07/22 13:55:30;;;;;;;3.10;3.10;;;25.20;1.00;;;;;;6250093;28;20312;-55
2022/07/22 13:58:33;;;;;;;3.47;3.17;;;25.10;1.00;;;;;;6281326;28;20228;-53
2022/07/22 14:01:39;;;;;;;3.07;2.77;;;25.10;1.00;;;;;;6280884;28;20248;-59
2022/07/22 14:04:42;;;;;;;3.03;2.97;;;25.00;1.00;;;;;;6290503;28;20250;-53
2022/07/22 14:07:45;;;;;;;2.67;2.67;;;25.10;1.00;;;;;;6286876;28;20294;-53
2022/07/22 14:10:50;;;;;;;2.60;2.60;;;25.10;1.00;;;;;;6291023;28;20418;-55
2022/07/22 14:13:53;;;;;;;2.83;2.73;;;25.30;1.00;;;;;;6275763;28;20339;-53
2022/07/22 14:16:57;;;;;;;2.43;2.33;;;25.50;1.00;;;;;;6287034;28;20237;-54
2022/07/22 14:20:03;;;;;;;3.47;3.07;;;25.60;1.00;;;;;;6284919;28;20730;-53
2022/07/22 14:23:09;;;;;;;2.40;2.40;;;25.60;1.00;;;;;;6278128;28;20307;-53
2022/07/22 14:26:13;;;;;;;3.23;2.63;;;25.50;1.00;;;;;;6281834;28;20315;-54
2022/07/22 14:29:16;;;;;;;3.33;3.23;;;25.60;1.00;;;;;;6276108;28;20241;-54
2022/07/22 14:32:19;;;;;;;3.20;3.10;;;25.60;1.00;;;;;;6281932;28;20838;-54
2022/07/22 14:35:22;;;;;;;3.00;3.00;;;25.60;1.00;;;;;;6277265;28;20473;-54
2022/07/22 14:38:25;;;;;;;3.07;2.90;;;25.80;1.00;;;;;;6287294;28;20337;-52
2022/07/22 14:41:41;;;;;;;3.07;3.03;;;25.90;1.00;;;;;;6286093;28;20324;-53
2022/07/22 14:44:44;;;;;;;2.87;2.87;;;26.20;1.00;;;;;;6285476;28;20781;-53
2022/07/22 14:47:47;;;;;;;2.97;2.93;;;26.20;1.00;;;;;;6282059;28;20301;-53
2022/07/22 14:50:50;;;;;;;2.83;2.83;;;26.20;1.00;;;;;;6280126;28;20749;-53
2022/07/22 14:53:54;;;;;;;2.77;2.77;;;26.10;1.00;;;;;;6282875;28;20240;-53
2022/07/22 14:56:59;;;;;;;2.90;2.90;;;26.20;1.00;;;;;;6277492;28;20800;-53
2022/07/22 15:00:02;;;;;;;2.47;2.40;;;26.10;1.00;;;;;;6284887;28;20225;-53
2022/07/22 15:03:05;;;;;;;3.10;3.00;;;26.10;1.00;;;;;;6279584;28;20324;-53
2022/07/22 15:06:08;;;;;;;2.77;2.67;;;26.00;1.00;;;;;;6276114;28;20283;-54
2022/07/22 15:09:11;;;;;;;2.77;2.67;;;26.10;1.00;;;;;;6281381;28;20255;-54
2022/07/22 15:12:15;;;;;;;2.97;2.87;;;26.10;1.00;;;;;;6275672;28;20553;-53
2022/07/22 15:15:39;;;;;;;2.70;2.70;;;26.10;1.00;;;;;;6279449;28;20233;-54
2022/07/22 15:18:42;;;;;;;2.70;2.60;;;26.10;1.00;;;;;;6284240;28;20764;-53
2022/07/22 15:21:47;;;;;;;2.50;2.40;;;26.10;1.00;;;;;;6277721;28;20238;-54
2022/07/22 15:24:50;;;;;;;2.93;2.83;;;26.30;1.00;;;;;;6276025;28;20652;-58
2022/07/22 15:27:54;;;;;;;2.40;2.40;;;26.40;1.00;;;;;;6280280;28;20241;-53
2022/07/22 15:31:17;;;;;;;2.50;2.50;;;26.50;1.00;;;;;;6273039;28;20628;-55
2022/07/22 15:34:20;;;;;;;3.13;3.03;;;26.30;1.00;;;;;;6285289;28;20228;-55
2022/07/22 15:37:23;;;;;;;3.27;3.07;;;26.20;1.00;;;;;;6289179;28;20484;-54
2022/07/22 15:40:26;;;;;;;2.90;2.90;;;26.30;1.00;;;;;;6284522;28;20280;-54
2022/07/22 15:43:31;;;;;;;2.80;2.60;;;26.30;1.00;;;;;;6286285;28;20302;-54
2022/07/22 15:46:34;;;;;;;2.80;2.80;;;26.10;1.00;;;;;;6278238;28;20238;-54
2022/07/22 15:49:37;;;;;;;3.00;2.80;;;25.90;1.00;;;;;;6280117;28;20237;-54
2022/07/22 15:52:40;;;;;;;2.90;2.90;;;25.90;1.00;;;;;;6283664;28;20376;-52
2022/07/22 15:55:43;;;;;;;2.70;2.70;;;25.90;1.00;;;;;;6282795;28;20245;-54
2022/07/22 16:02:28;;;;;;;2.90;2.90;;;25.70;1.00;;;;;;6286399;28;20241;-55
2022/07/22 16:05:31;;;;;;;3.03;2.93;;;25.50;1.00;;;;;;6284537;28;20584;-56
2022/07/22 16:08:34;;;;;;;2.80;2.80;;;25.50;1.00;;;;;;6280493;28;20237;-54
2022/07/22 16:11:38;;;;;;;3.40;3.20;;;25.50;1.00;;;;;;6290347;28;20229;-57